Time;durP1;ratioP1;P1;durP2;ratioP2;P2;SDS_P1;SDS_P2;PMS_P1;PMS_P2;Temp;Humidity;BMP_temperature;BMP_pressure;BME280_temperature;BME280_humidity;BME280_pressure;Samples;Min_cycle;Max_cycle;Signal;HPM_P1;HPM_P2
2023/10/12 00:04:06;;;;;;;15.80;5.40;;;;;;;17.93;64.33;99835.28;10349705;28;20062;-78
2023/10/12 00:09:17;;;;;;;14.38;5.10;;;;;;;17.85;64.82;99832.69;10332898;28;20050;-78
2023/10/12 00:14:22;;;;;;;13.82;5.15;;;;;;;17.56;66.24;99846.22;10333588;28;20058;-78
2023/10/12 00:19:25;;;;;;;10.07;6.13;;;;;;;17.56;66.79;99862.50;10335712;28;20057;-78
2023/10/12 00:24:30;;;;;;;14.98;5.78;;;;;;;17.73;66.68;99852.34;10334907;28;20053;-78
2023/10/12 00:29:33;;;;;;;14.50;6.05;;;;;;;17.36;68.64;99853.97;10334512;28;20128;-78
2023/10/12 00:34:37;;;;;;;11.35;5.20;;;;;;;16.95;70.41;99844.25;10334718;28;20050;-78
2023/10/12 00:39:48;;;;;;;19.77;6.00;;;;;;;17.20;70.11;99836.81;10335572;28;20053;-78
2023/10/12 00:44:53;;;;;;;22.02;6.53;;;;;;;17.48;69.18;99837.09;10316594;28;20050;-78
2023/10/12 00:49:56;;;;;;;12.85;5.65;;;;;;;17.22;70.68;99845.63;10316307;28;20049;-79
2023/10/12 00:55:13;;;;;;;15.25;5.90;;;;;;;17.27;70.96;99847.78;10316474;28;20046;-78
2023/10/12 01:00:18;;;;;;;17.38;5.95;;;;;;;17.31;72.58;99856.44;10315370;28;20671;-78
2023/10/12 01:05:22;;;;;;;15.70;6.15;;;;;;;17.08;73.68;99870.78;10335135;28;20062;-78
2023/10/12 01:10:31;;;;;;;10.68;6.60;;;;;;;16.98;76.42;99860.16;10315765;28;20155;-78
2023/10/12 01:15:34;;;;;;;12.30;6.60;;;;;;;16.81;78.22;99851.28;10338392;28;20042;-77
2023/10/12 01:20:39;;;;;;;17.75;8.32;;;;;;;16.75;79.56;99857.38;10322080;28;20141;-79
2023/10/12 01:25:46;;;;;;;15.32;7.05;;;;;;;16.66;81.69;99866.59;10340596;28;20061;-78
2023/10/12 01:30:50;;;;;;;15.63;7.45;;;;;;;16.61;83.09;99858.16;10344283;28;20049;-78
2023/10/12 01:35:53;;;;;;;13.05;7.32;;;;;;;16.58;86.64;99870.19;10325550;28;20038;-78
2023/10/12 01:40:57;;;;;;;14.93;8.18;;;;;;;16.54;90.41;99871.56;10324378;28;20042;-78
2023/10/12 01:46:01;;;;;;;14.05;7.68;;;;;;;16.30;90.60;99883.34;10342139;28;20082;-78
2023/10/12 01:51:10;;;;;;;19.17;7.35;;;;;;;16.02;92.12;99884.75;10340404;28;20160;-77
2023/10/12 01:56:15;;;;;;;19.60;8.32;;;;;;;15.84;92.19;99882.22;10341320;28;20054;-77
2023/10/12 02:01:20;;;;;;;14.45;8.68;;;;;;;15.47;94.62;99872.75;10325650;28;20046;-78
2023/10/12 02:06:28;;;;;;;18.50;8.60;;;;;;;15.33;99.25;99895.00;10322257;28;20050;-77
2023/10/12 02:11:45;;;;;;;20.92;9.23;;;;;;;15.25;100.00;99891.31;10317336;28;20509;-77
2023/10/12 02:16:53;;;;;;;15.80;8.90;;;;;;;15.07;100.00;99901.41;10318155;28;20053;-78
2023/10/12 02:22:01;;;;;;;21.23;9.77;;;;;;;15.21;100.00;99894.50;10318373;28;21192;-77
2023/10/12 02:27:05;;;;;;;15.98;9.80;;;;;;;14.97;100.00;99900.69;10317485;28;20037;-78
2023/10/12 02:32:17;;;;;;;23.35;11.30;;;;;;;14.95;100.00;99900.03;10336972;28;20774;-78
2023/10/12 02:37:21;;;;;;;;;;;;;;;14.91;100.00;99923.81;10311129;28;20042;-77
2023/10/12 02:42:39;;;;;;;;;;;;;;;14.85;100.00;99920.94;10320991;28;20038;-77
2023/10/12 02:47:45;;;;;;;20.70;12.85;;;;;;;14.71;100.00;99936.78;10334128;28;20004;-77
2023/10/12 02:52:51;;;;;;;26.35;13.55;;;;;;;14.39;100.00;99934.75;10333169;28;20037;-76
2023/10/12 02:57:59;;;;;;;24.05;14.38;;;;;;;14.16;100.00;99947.91;10330316;28;20042;-77
2023/10/12 03:03:19;;;;;;;27.08;16.63;;;;;;;14.15;100.00;99952.47;10308486;28;20056;-76
2023/10/12 03:08:23;;;;;;;31.05;15.00;;;;;;;14.13;100.00;99975.25;10328224;28;20042;-77
2023/10/12 03:13:34;;;;;;;38.53;19.95;;;;;;;13.94;100.00;99974.41;10316554;28;20428;-78
2023/10/12 03:18:37;;;;;;;31.95;17.70;;;;;;;13.97;100.00;99967.84;10317169;28;20053;-78
2023/10/12 03:23:46;;;;;;;36.90;21.20;;;;;;;13.71;100.00;99970.47;10338266;28;20621;-78
2023/10/12 03:28:50;;;;;;;39.70;19.60;;;;;;;13.62;100.00;99991.16;10339750;28;20468;-76
2023/10/12 03:33:55;;;;;;;43.17;25.27;;;;;;;13.96;100.00;99987.78;10317961;28;20176;-78
2023/10/12 03:39:12;;;;;;;46.33;25.35;;;;;;;14.08;100.00;99974.84;10329380;28;20079;-77
2023/10/12 03:44:22;;;;;;;41.25;24.52;;;;;;;14.04;100.00;99979.72;10333090;28;20047;-77
2023/10/12 03:49:32;;;;;;;45.38;27.58;;;;;;;14.13;100.00;99984.19;10318826;28;20049;-77
2023/10/12 03:54:35;;;;;;;55.25;28.08;;;;;;;14.02;100.00;99989.84;10307554;28;20053;-78
2023/10/12 03:59:44;;;;;;;55.70;30.45;;;;;;;14.10;100.00;99978.25;10332770;28;20552;-78
2023/10/12 04:04:59;;;;;;;61.00;30.60;;;;;;;13.83;100.00;99984.63;10314193;28;20609;-77
2023/10/12 04:10:13;;;;;;;67.80;27.48;;;;;;;13.89;100.00;99981.28;10318049;28;20038;-77
2023/10/12 04:15:27;;;;;;;62.70;32.60;;;;;;;13.83;100.00;99971.97;10345223;28;21225;-77
2023/10/12 04:20:33;;;;;;;58.75;29.02;;;;;;;13.69;100.00;99980.59;10343529;28;20090;-78
2023/10/12 04:25:48;;;;;;;63.17;33.42;;;;;;;13.86;100.00;99987.00;10346693;28;20046;-78
2023/10/12 04:36:44;;;;;;;76.20;38.00;;;;;;;14.15;100.00;99984.00;10310521;28;20076;-79
2023/10/12 04:42:00;;;;;;;67.60;34.92;;;;;;;14.24;100.00;99991.19;10336697;28;20052;-78
2023/10/12 04:47:05;;;;;;;71.20;35.20;;;;;;;14.11;100.00;99997.00;10331629;28;20096;-80
2023/10/12 04:52:16;;;;;;;75.03;36.63;;;;;;;14.51;100.00;99997.50;10350577;28;20053;-79
2023/10/12 04:57:26;;;;;;;64.75;31.80;;;;;;;14.42;100.00;100014.63;10343105;28;20057;-78
2023/10/12 05:02:42;;;;;;;48.15;27.45;;;;;;;14.19;100.00;100014.28;10346278;28;20065;-79
2023/10/12 05:07:54;;;;;;;50.13;27.73;;;;;;;14.17;100.00;100025.22;10389261;28;20049;-78
2023/10/12 05:13:03;;;;;;;54.05;30.25;;;;;;;14.32;100.00;100037.19;10341339;28;20073;-79
2023/10/12 05:18:09;;;;;;;52.70;29.05;;;;;;;14.34;100.00;100026.19;10342101;28;20062;-77
2023/10/12 05:23:13;;;;;;;52.97;28.98;;;;;;;14.02;100.00;100038.44;10346710;28;20054;-79
2023/10/12 05:28:16;;;;;;;54.95;29.80;;;;;;;14.27;100.00;100034.09;10347859;28;20053;-79
2023/10/12 05:33:38;;;;;;;55.10;30.85;;;;;;;14.34;100.00;100026.19;10350784;28;20053;-79
2023/10/12 05:38:48;;;;;;;59.40;30.00;;;;;;;14.29;100.00;100042.03;10345362;28;20057;-79
2023/10/12 05:43:56;;;;;;;55.67;30.27;;;;;;;14.17;100.00;100046.84;10343500;28;20049;-79
2023/10/12 05:49:02;;;;;;;58.00;28.48;;;;;;;14.06;100.00;100056.03;10333950;28;20252;-79
2023/10/12 05:54:07;;;;;;;57.75;30.27;;;;;;;14.23;100.00;100043.50;10348673;28;20050;-79
2023/10/12 05:59:12;;;;;;;55.17;28.95;;;;;;;14.30;100.00;100036.47;10335088;28;20045;-79
2023/10/12 06:04:17;;;;;;;54.58;30.17;;;;;;;14.29;100.00;100042.91;10348850;28;20072;-78
2023/10/12 06:09:23;;;;;;;51.33;28.50;;;;;;;14.14;100.00;100049.84;10341453;28;20112;-77
2023/10/12 06:14:28;;;;;;;52.70;28.40;;;;;;;14.31;100.00;100064.34;10334839;28;20061;-79
2023/10/12 06:19:35;;;;;;;51.85;28.75;;;;;;;14.43;100.00;100081.19;10344042;28;20056;-78
2023/10/12 06:24:41;;;;;;;50.90;25.23;;;;;;;14.12;100.00;100098.63;10336311;28;20057;-77
2023/10/12 06:29:44;;;;;;;40.53;24.00;;;;;;;14.23;100.00;100102.94;10336106;28;20050;-78
2023/10/12 06:35:13;;;;;;;36.78;22.60;;;;;;;14.03;100.00;100101.41;10329887;28;20060;-78
2023/10/12 06:45:46;;;;;;;34.85;22.13;;;;;;;14.14;100.00;100099.31;10335021;28;21345;-77
2023/10/12 06:51:02;;;;;;;39.22;20.90;;;;;;;14.36;100.00;100106.09;10334970;28;20053;-78
2023/10/12 06:56:16;;;;;;;28.83;17.27;;;;;;;14.22;100.00;100114.75;10330715;28;20057;-77
2023/10/12 07:01:26;;;;;;;30.13;18.60;;;;;;;14.25;100.00;100105.50;10336401;28;20489;-77
2023/10/12 07:06:31;;;;;;;25.98;16.48;;;;;;;14.06;100.00;100120.00;10327864;28;20062;-79
2023/10/12 07:11:39;;;;;;;28.52;16.85;;;;;;;14.27;100.00;100119.69;10328331;28;20869;-79
2023/10/12 07:16:54;;;;;;;27.70;15.05;;;;;;;14.10;100.00;100132.19;10331585;28;20054;-79
2023/10/12 07:22:01;;;;;;;26.27;15.80;;;;;;;14.26;100.00;100140.47;10334225;28;21602;-78
2023/10/12 07:27:10;;;;;;;27.67;14.43;;;;;;;14.22;100.00;100139.06;10347505;28;20139;-78
2023/10/12 07:32:30;;;;;;;26.20;15.93;;;;;;;14.27;100.00;100146.72;10349839;28;20054;-78
2023/10/12 07:37:41;;;;;;;20.42;12.65;;;;;;;13.93;100.00;100156.34;10353673;28;20132;-78
2023/10/12 07:42:46;;;;;;;21.33;13.77;;;;;;;14.04;100.00;100163.38;10349804;28;20049;-79
2023/10/12 07:47:58;;;;;;;25.30;14.80;;;;;;;14.14;100.00;100171.41;10334654;28;21022;-78
2023/10/12 07:53:21;;;;;;;22.35;14.98;;;;;;;14.21;100.00;100171.66;10341552;28;20099;-78
2023/10/12 07:58:24;;;;;;;19.67;12.50;;;;;;;14.45;100.00;100179.16;10334027;28;20060;-78
2023/10/12 08:03:36;;;;;;;14.55;9.32;;;;;;;14.40;100.00;100182.34;10349667;28;20045;-77
2023/10/12 08:08:41;;;;;;;8.38;5.10;;;;;;;14.07;100.00;100194.59;10341288;28;20926;-78
2023/10/12 08:13:49;;;;;;;6.15;4.03;;;;;;;13.88;100.00;100196.44;10334708;28;20048;-77
2023/10/12 08:19:09;;;;;;;3.75;2.80;;;;;;;13.60;100.00;100211.78;10348878;28;20046;-77
2023/10/12 08:24:23;;;;;;;5.65;2.88;;;;;;;13.27;100.00;100227.47;10343279;28;20078;-78
2023/10/12 08:40:18;;;;;;;7.45;2.42;;;;;;;13.46;100.00;100237.34;10354293;28;20050;-78
2023/10/12 08:45:26;;;;;;;6.50;2.00;;;;;;;13.21;100.00;100246.91;10361179;28;21302;-79
2023/10/12 08:55:53;;;;;;;4.80;1.75;;;;;;;12.79;100.00;100249.09;10357875;28;20133;-78
2023/10/12 09:01:08;;;;;;;7.28;1.70;;;;;;;12.83;100.00;100245.97;10349530;28;20050;-77
2023/10/12 09:06:29;;;;;;;2.30;1.50;;;;;;;12.91;100.00;100247.94;10329462;28;20050;-78
2023/10/12 09:11:34;;;;;;;4.53;1.70;;;;;;;12.94;100.00;100258.44;10327697;28;20046;-76
2023/10/12 09:16:37;;;;;;;7.05;2.05;;;;;;;12.95;100.00;100272.78;10338593;28;20056;-77
2023/10/12 09:21:57;;;;;;;4.00;2.20;;;;;;;12.87;100.00;100265.41;10332892;28;20072;-77
2023/10/12 09:27:11;;;;;;;2.83;2.30;;;;;;;13.05;100.00;100262.81;10340682;28;20053;-78
2023/10/12 09:32:15;;;;;;;3.40;1.58;;;;;;;13.14;100.00;100274.63;10319982;28;20259;-77
2023/10/12 09:37:18;;;;;;;2.60;1.70;;;;;;;13.21;100.00;100276.56;10333626;28;20417;-77
2023/10/12 09:42:30;;;;;;;3.13;1.60;;;;;;;13.10;100.00;100289.38;10335237;28;20046;-79
2023/10/12 09:47:50;;;;;;;3.47;1.90;;;;;;;13.15;100.00;100285.25;10332621;28;20052;-76
2023/10/12 09:52:58;;;;;;;3.25;2.60;;;;;;;13.09;100.00;100285.81;10310256;28;20073;-78
2023/10/12 09:58:14;;;;;;;6.55;2.60;;;;;;;13.33;100.00;100288.06;10333602;28;20045;-78
2023/10/12 10:03:19;;;;;;;2.42;1.83;;;;;;;13.39;100.00;100281.28;10349850;28;20080;-78
2023/10/12 10:08:26;;;;;;;4.82;2.08;;;;;;;13.47;100.00;100278.72;10353159;28;20056;-78
2023/10/12 10:13:46;;;;;;;2.03;1.83;;;;;;;13.35;100.00;100279.81;10326253;28;21242;-77
2023/10/12 10:18:56;;;;;;;1.73;1.40;;;;;;;13.44;100.00;100284.41;10336334;28;20042;-77
2023/10/12 10:24:02;;;;;;;1.70;1.05;;;;;;;13.40;100.00;100294.59;10357570;28;20459;-78
2023/10/12 10:29:07;;;;;;;1.92;1.40;;;;;;;13.40;100.00;100286.50;10338890;28;20416;-78
2023/10/12 10:34:12;;;;;;;3.45;1.35;;;;;;;13.54;100.00;100292.44;10350193;28;20049;-78
2023/10/12 10:44:41;;;;;;;1.65;1.23;;;;;;;13.47;100.00;100284.94;10349493;28;21267;-77
2023/10/12 10:49:48;;;;;;;1.87;1.77;;;;;;;13.49;100.00;100277.56;10321510;28;20057;-77
2023/10/12 10:55:00;;;;;;;1.13;1.02;;;;;;;13.43;100.00;100280.81;10320623;28;20087;-77
2023/10/12 11:00:10;;;;;;;2.67;1.52;;;;;;;13.15;100.00;100285.25;10337040;28;21177;-77
2023/10/12 11:05:19;;;;;;;1.30;1.00;;;;;;;13.24;100.00;100273.59;10308569;28;20065;-77
2023/10/12 11:10:31;;;;;;;1.85;1.70;;;;;;;13.43;100.00;100277.28;10327977;28;20428;-78
2023/10/12 11:15:42;;;;;;;3.35;1.75;;;;;;;13.45;100.00;100275.28;10518692;27;21009;-77
2023/10/12 11:20:49;;;;;;;3.00;2.70;;;;;;;13.43;100.00;100280.81;10519225;28;20032;-77
2023/10/12 11:26:04;;;;;;;4.47;3.13;;;;;;;13.39;100.00;100271.34;10523735;28;20165;-77
2023/10/12 11:31:20;;;;;;;2.28;1.92;;;;;;;13.44;100.00;100274.44;10513725;28;20105;-77
2023/10/12 11:36:24;;;;;;;2.03;1.73;;;;;;;13.45;100.00;100276.16;10518216;28;20037;-77
2023/10/12 11:41:28;;;;;;;3.50;2.22;;;;;;;13.47;100.00;100270.63;10523032;28;20040;-77
2023/10/12 11:46:44;;;;;;;1.73;1.63;;;;;;;13.46;100.00;100272.44;10520157;28;20036;-77
2023/10/12 11:51:52;;;;;;;2.40;1.80;;;;;;;13.50;100.00;100262.22;10521976;28;20044;-76
2023/10/12 11:56:55;;;;;;;2.20;2.00;;;;;;;13.68;100.00;100256.91;10525501;28;20048;-77
2023/10/12 12:02:06;;;;;;;1.70;1.60;;;;;;;13.73;100.00;100260.00;10518562;28;20092;-77
2023/10/12 12:07:10;;;;;;;1.58;1.10;;;;;;;13.81;100.00;100256.56;10516437;28;20046;-77
2023/10/12 12:12:13;;;;;;;2.15;1.50;;;;;;;13.74;100.00;100256.31;10524286;28;20047;-77
2023/10/12 12:17:20;;;;;;;4.45;2.22;;;;;;;13.72;100.00;100247.50;10524377;28;20414;-77
2023/10/12 12:22:24;;;;;;;3.03;2.75;;;;;;;13.72;100.00;100250.22;10514750;28;20101;-77
2023/10/12 12:27:38;;;;;;;7.15;5.10;;;;;;;13.62;100.00;100250.25;10495941;28;20044;-77
2023/10/12 12:32:43;;;;;;;7.90;6.60;;;;;;;13.67;100.00;100245.25;10494203;28;20063;-76
2023/10/12 12:37:45;;;;;;;8.93;7.00;;;;;;;13.70;100.00;100247.66;10485861;28;20036;-77
2023/10/12 12:42:48;;;;;;;10.07;7.68;;;;;;;13.63;100.00;100246.56;10486838;28;20040;-77
2023/10/12 12:47:55;;;;;;;8.20;7.30;;;;;;;13.68;100.00;100238.84;10492647;28;20044;-77
2023/10/12 12:52:58;;;;;;;7.88;5.82;;;;;;;13.80;100.00;100235.97;10494863;28;20411;-78
2023/10/12 12:58:01;;;;;;;6.72;5.72;;;;;;;13.76;100.00;100226.47;10494596;28;20055;-76
2023/10/12 13:03:09;;;;;;;6.00;5.28;;;;;;;13.76;100.00;100238.09;10483276;28;20072;-77
2023/10/12 13:08:12;;;;;;;5.95;5.05;;;;;;;13.79;100.00;100232.41;10466981;28;20135;-77
2023/10/12 13:13:15;;;;;;;5.97;5.03;;;;;;;13.86;100.00;100229.97;10449324;28;20044;-77
2023/10/12 13:18:19;;;;;;;5.50;5.00;;;;;;;13.90;100.00;100231.38;10444755;28;20443;-77
2023/10/12 13:23:23;;;;;;;4.80;4.40;;;;;;;13.95;100.00;100223.66;10455569;28;20066;-77
2023/10/12 13:28:27;;;;;;;4.57;4.10;;;;;;;13.91;100.00;100228.53;10454277;28;20064;-77
2023/10/12 13:33:31;;;;;;;3.53;3.22;;;;;;;13.88;100.00;100223.44;10457211;28;21191;-76
2023/10/12 13:38:36;;;;;;;3.72;3.30;;;;;;;13.86;100.00;100221.88;10451046;28;20048;-76
2023/10/12 13:43:39;;;;;;;6.15;3.47;;;;;;;13.82;100.00;100223.16;10447722;28;20045;-76
2023/10/12 13:48:43;;;;;;;4.80;3.97;;;;;;;13.91;100.00;100228.53;10453337;28;20044;-77
2023/10/12 13:53:46;;;;;;;3.83;3.42;;;;;;;13.99;100.00;100222.38;10455231;28;20052;-76
2023/10/12 13:58:52;;;;;;;3.22;2.40;;;;;;;14.01;100.00;100227.63;10449527;28;20431;-77
2023/10/12 14:03:57;;;;;;;1.92;1.73;;;;;;;14.05;100.00;100227.19;10456116;28;20060;-76
2023/10/12 14:09:00;;;;;;;1.85;1.75;;;;;;;14.06;100.00;100241.53;10448088;28;20091;-77
2023/10/12 14:14:03;;;;;;;2.22;2.03;;;;;;;13.84;100.00;100248.16;10442793;28;20056;-77
2023/10/12 14:19:07;;;;;;;4.38;2.55;;;;;;;13.90;100.00;100223.25;10454934;28;20056;-76
2023/10/12 14:24:10;;;;;;;3.33;3.03;;;;;;;13.90;100.00;100231.38;10452637;28;21156;-77
2023/10/12 14:29:18;;;;;;;13.07;8.77;;;;;;;13.76;100.00;100224.59;10447122;28;20408;-76
2023/10/12 14:34:22;;;;;;;10.75;8.57;;;;;;;13.67;100.00;100212.88;10448406;28;20051;-76
2023/10/12 14:39:29;;;;;;;10.98;7.78;;;;;;;13.70;100.00;100209.88;10444937;28;20052;-77
2023/10/12 14:44:33;;;;;;;12.52;9.23;;;;;;;13.75;100.00;100214.81;10447509;28;20052;-77
2023/10/12 14:49:39;;;;;;;11.23;8.18;;;;;;;13.72;100.00;100217.81;10456431;28;20052;-77
2023/10/12 14:54:42;;;;;;;12.82;9.00;;;;;;;13.65;100.00;100211.31;10456560;28;20048;-76
2023/10/12 14:59:48;;;;;;;12.30;9.73;;;;;;;13.67;100.00;100214.72;10459534;28;20072;-77
2023/10/12 15:04:55;;;;;;;8.88;8.02;;;;;;;13.65;100.00;100203.22;10467541;28;20044;-77
2023/10/12 15:10:02;;;;;;;6.65;5.05;;;;;;;13.62;100.00;100207.06;10462785;28;20056;-77
2023/10/12 15:15:08;;;;;;;5.18;4.68;;;;;;;13.58;100.00;100208.38;10456276;28;20040;-77
2023/10/12 15:20:16;;;;;;;6.75;5.15;;;;;;;13.58;100.00;100207.53;10450154;28;20579;-77
2023/10/12 15:25:22;;;;;;;7.45;4.57;;;;;;;13.48;100.00;100183.25;10439568;28;20055;-77
2023/10/12 15:30:26;;;;;;;10.50;5.85;;;;;;;13.47;100.00;100190.50;10466656;28;20121;-78
2023/10/12 15:35:30;;;;;;;7.57;5.90;;;;;;;13.43;100.00;100175.59;10456307;28;20427;-77
2023/10/12 15:40:38;;;;;;;7.57;6.50;;;;;;;13.31;100.00;100179.47;10464017;28;20049;-77
2023/10/12 15:45:46;;;;;;;10.73;7.05;;;;;;;13.32;100.00;100166.81;10457073;28;20758;-77
2023/10/12 15:50:51;;;;;;;11.07;7.50;;;;;;;13.37;100.00;100162.72;10448761;28;20515;-77
2023/10/12 15:55:54;;;;;;;9.20;7.20;;;;;;;13.43;100.00;100172.91;10459323;28;20051;-77
2023/10/12 16:01:03;;;;;;;9.38;6.93;;;;;;;13.53;100.00;100182.81;10470125;28;20040;-78
2023/10/12 16:06:11;;;;;;;9.35;7.13;;;;;;;13.67;100.00;100190.44;10453959;28;20526;-77
2023/10/12 16:11:21;;;;;;;12.98;7.85;;;;;;;13.70;100.00;100190.97;10453874;28;20407;-77
2023/10/12 16:16:28;;;;;;;9.98;7.45;;;;;;;13.61;100.00;100182.94;10460779;28;20052;-77
2023/10/12 16:21:36;;;;;;;9.23;7.10;;;;;;;13.61;100.00;100170.28;10464814;28;20285;-77
2023/10/12 16:26:39;;;;;;;9.95;7.80;;;;;;;13.64;100.00;100178.06;10462768;28;20634;-78
2023/10/12 16:31:43;;;;;;;24.65;19.05;;;;;;;13.69;100.00;100172.25;10466631;28;20051;-77
2023/10/12 16:36:50;;;;;;;19.33;12.68;;;;;;;13.69;100.00;100170.38;10473913;28;20048;-76
2023/10/12 16:41:54;;;;;;;10.93;8.77;;;;;;;13.68;100.00;100159.72;10426620;28;20047;-78
2023/10/12 16:47:01;;;;;;;15.23;10.45;;;;;;;13.63;100.00;100160.19;10438841;28;20049;-78
2023/10/12 16:52:08;;;;;;;21.80;14.30;;;;;;;13.69;100.00;100166.84;10455443;28;20048;-78
2023/10/12 16:57:11;;;;;;;23.42;14.73;;;;;;;13.74;100.00;100161.84;10467522;28;20059;-78
2023/10/12 17:02:19;;;;;;;21.08;11.88;;;;;;;13.75;100.00;100152.75;10434293;28;20060;-77
2023/10/12 17:07:26;;;;;;;21.90;12.73;;;;;;;13.77;100.00;100149.88;10451602;28;20040;-77
2023/10/12 17:12:35;;;;;;;25.75;14.55;;;;;;;13.64;100.00;100140.28;10444415;28;20052;-78
2023/10/12 17:17:47;;;;;;;30.35;15.55;;;;;;;13.88;100.00;100107.34;10453692;28;20040;-77
2023/10/12 17:23:05;;;;;;;39.30;19.00;;;;;;;14.06;100.00;100060.56;10469713;28;20048;-78
2023/10/12 17:28:09;;;;;;;35.53;20.20;;;;;;;14.15;100.00;100086.66;10464191;28;20056;-80
2023/10/12 17:33:16;;;;;;;36.83;20.85;;;;;;;14.19;100.00;100079.94;10459974;28;20098;-76
2023/10/12 17:38:23;;;;;;;36.20;21.55;;;;;;;14.19;100.00;100084.50;10459118;28;20048;-79
2023/10/12 17:43:30;;;;;;;42.50;23.38;;;;;;;14.13;100.00;100102.19;10464707;28;20053;-77
2023/10/12 17:48:33;;;;;;;29.20;16.88;;;;;;;13.98;100.00;100131.56;10464404;28;20052;-78
2023/10/12 17:53:38;;;;;;;32.53;19.10;;;;;;;13.93;100.00;100142.84;10464452;28;20055;-78
2023/10/12 17:58:41;;;;;;;37.33;21.08;;;;;;;14.09;100.00;100169.13;10454598;28;20037;-79
2023/10/12 18:03:47;;;;;;;34.97;21.63;;;;;;;14.08;100.00;100175.56;10467383;28;20045;-78
2023/10/12 18:08:52;;;;;;;38.67;20.85;;;;;;;14.26;100.00;100183.69;10461150;28;20083;-77
2023/10/12 18:13:55;;;;;;;45.20;22.25;;;;;;;14.30;100.00;100184.22;10470741;28;20044;-77
2023/10/12 18:19:00;;;;;;;39.40;22.20;;;;;;;14.35;100.00;100184.63;10459170;28;20430;-77
2023/10/12 18:24:06;;;;;;;39.35;22.35;;;;;;;14.21;100.00;100186.00;10466719;28;20056;-79
2023/10/12 18:29:09;;;;;;;48.17;23.80;;;;;;;14.33;100.00;100190.16;10451318;28;21160;-77
2023/10/12 18:34:12;;;;;;;44.83;22.65;;;;;;;14.40;100.00;100185.03;10452253;28;20136;-77
2023/10/12 18:39:17;;;;;;;38.45;21.95;;;;;;;14.47;100.00;100198.78;10468246;28;20176;-77
2023/10/12 18:44:21;;;;;;;43.25;24.85;;;;;;;14.54;100.00;100200.72;10456784;28;20060;-78
2023/10/12 18:49:30;;;;;;;41.70;23.45;;;;;;;14.52;100.00;100197.31;10460558;28;20045;-77
2023/10/12 18:54:45;;;;;;;38.88;22.95;;;;;;;14.43;100.00;100200.09;10471364;28;20049;-78
2023/10/12 18:59:49;;;;;;;39.40;23.77;;;;;;;14.49;100.00;100197.63;10463170;28;20040;-78
2023/10/12 19:04:52;;;;;;;39.28;24.58;;;;;;;14.53;100.00;100203.56;10469894;28;20047;-77
2023/10/12 19:09:56;;;;;;;39.83;23.45;;;;;;;14.37;100.00;100194.28;10467341;28;20251;-78
2023/10/12 19:14:59;;;;;;;43.88;27.02;;;;;;;14.55;100.00;100198.84;10441027;28;20048;-78
2023/10/12 19:20:04;;;;;;;41.20;26.40;;;;;;;14.59;100.00;100201.09;10455401;28;20514;-78
2023/10/12 19:25:11;;;;;;;44.80;27.38;;;;;;;14.54;100.00;100203.41;10453925;28;20063;-77
2023/10/12 19:30:15;;;;;;;46.38;29.52;;;;;;;14.65;100.00;100204.19;10446695;28;20067;-78
2023/10/12 19:35:18;;;;;;;46.13;27.90;;;;;;;14.63;100.00;100200.78;10451383;28;20053;-77
2023/10/12 19:40:24;;;;;;;48.33;28.15;;;;;;;14.67;100.00;100191.34;10454961;28;20053;-77
2023/10/12 19:45:29;;;;;;;42.85;28.80;;;;;;;14.72;100.00;100189.03;10450515;28;20051;-75
2023/10/12 19:50:36;;;;;;;47.83;29.00;;;;;;;14.74;100.00;100187.88;10462304;28;20048;-76
2023/10/12 19:55:40;;;;;;;52.00;29.52;;;;;;;14.73;100.00;100185.34;10462652;28;20534;-76
2023/10/12 20:00:48;;;;;;;46.53;29.08;;;;;;;14.74;100.00;100184.31;10463232;28;20090;-78
2023/10/12 20:05:55;;;;;;;47.97;28.60;;;;;;;14.65;100.00;100194.22;10445222;28;20048;-76
2023/10/12 20:10:59;;;;;;;53.45;29.52;;;;;;;14.62;100.00;100189.13;10464836;28;20032;-78
2023/10/12 20:16:04;;;;;;;48.58;27.10;;;;;;;14.58;100.00;100198.53;10462728;28;20066;-77
2023/10/12 20:21:08;;;;;;;53.25;30.55;;;;;;;14.63;100.00;100198.94;10460736;28;20246;-79
2023/10/12 20:26:13;;;;;;;60.05;32.53;;;;;;;14.58;100.00;100191.28;10450785;28;20060;-78
2023/10/12 20:31:16;;;;;;;53.25;32.85;;;;;;;14.63;100.00;100188.13;10472820;28;20051;-79
2023/10/12 20:36:21;;;;;;;58.88;33.42;;;;;;;14.69;100.00;100186.63;10454066;28;20080;-77
2023/10/12 20:41:25;;;;;;;60.05;33.45;;;;;;;14.77;100.00;100184.84;10448121;28;20056;-75
2023/10/12 20:46:29;;;;;;;61.20;33.88;;;;;;;14.66;100.00;100171.59;10443539;28;20063;-77
2023/10/12 20:51:36;;;;;;;62.42;33.88;;;;;;;14.71;100.00;100174.66;10446759;28;20048;-76
2023/10/12 20:56:44;;;;;;;65.05;34.92;;;;;;;14.72;100.00;100180.91;10471217;28;20423;-76
2023/10/12 21:01:49;;;;;;;62.45;35.22;;;;;;;14.65;100.00;100166.34;10458327;28;20132;-77
2023/10/12 21:06:55;;;;;;;64.90;36.47;;;;;;;14.73;100.00;100164.56;10451423;28;20051;-77
2023/10/12 21:12:03;;;;;;;64.15;34.85;;;;;;;14.69;100.00;100173.97;10447000;28;20059;-78
2023/10/12 21:17:06;;;;;;;60.70;34.90;;;;;;;14.66;100.00;100168.88;10449568;28;21683;-79
2023/10/12 21:22:11;;;;;;;62.78;34.58;;;;;;;14.68;100.00;100164.16;10452926;28;20708;-77
2023/10/12 21:27:15;;;;;;;61.10;31.55;;;;;;;14.53;100.00;100157.59;10456192;28;20048;-76
2023/10/12 21:32:26;;;;;;;55.05;30.92;;;;;;;14.66;100.00;100160.78;10450218;28;20061;-76
2023/10/12 21:37:33;;;;;;;61.30;31.75;;;;;;;14.64;100.00;100143.84;10452507;28;20467;-77
2023/10/12 21:42:40;;;;;;;62.05;34.90;;;;;;;14.65;100.00;100132.03;10446099;28;20048;-78
2023/10/12 21:47:44;;;;;;;69.47;36.92;;;;;;;14.73;100.00;100134.81;10454885;28;20044;-78
2023/10/12 21:52:47;;;;;;;70.28;36.78;;;;;;;14.62;100.00;100139.59;10442077;28;20492;-77
2023/10/12 21:57:52;;;;;;;76.88;38.72;;;;;;;14.68;100.00;100131.72;10454489;28;20045;-77
2023/10/12 22:02:54;;;;;;;72.72;37.90;;;;;;;14.56;100.00;100124.84;10452353;28;20062;-77
2023/10/12 22:07:58;;;;;;;71.32;35.25;;;;;;;14.56;100.00;100122.16;10450928;28;20063;-77
2023/10/12 22:13:05;;;;;;;60.42;32.47;;;;;;;14.50;100.00;100112.81;10459826;28;20049;-77
2023/10/12 22:18:12;;;;;;;63.60;36.40;;;;;;;14.65;100.00;100117.69;10449989;28;20052;-77
2023/10/12 22:23:15;;;;;;;67.18;34.28;;;;;;;14.57;100.00;100111.22;10444302;28;20053;-78
2023/10/12 22:28:20;;;;;;;64.15;33.92;;;;;;;14.55;100.00;100107.81;10449055;28;20056;-77
2023/10/12 22:33:23;;;;;;;66.63;37.25;;;;;;;14.71;100.00;100112.50;10454557;28;20592;-77
2023/10/12 22:38:26;;;;;;;70.18;37.55;;;;;;;14.80;100.00;100100.72;10457191;28;20060;-78
2023/10/12 22:43:31;;;;;;;74.28;38.38;;;;;;;14.79;100.00;100096.31;10441860;28;20131;-78
2023/10/12 22:48:38;;;;;;;78.30;38.03;;;;;;;14.85;100.00;100104.81;10452654;28;20044;-76
2023/10/12 22:53:42;;;;;;;75.22;37.13;;;;;;;14.58;100.00;100114.75;10444692;28;20048;-77
2023/10/12 22:58:47;;;;;;;77.25;38.97;;;;;;;14.72;100.00;100103.34;10444171;28;20231;-77
2023/10/12 23:03:50;;;;;;;77.35;39.13;;;;;;;14.76;100.00;100102.06;10446052;28;20052;-77
2023/10/12 23:08:53;;;;;;;76.57;37.92;;;;;;;14.98;100.00;100107.94;10435580;28;20048;-78
2023/10/12 23:13:57;;;;;;;63.70;31.08;;;;;;;14.87;100.00;100098.25;10433065;28;20067;-77
2023/10/12 23:19:01;;;;;;;70.40;38.45;;;;;;;14.89;100.00;100101.66;10442052;28;20523;-77
2023/10/12 23:24:11;;;;;;;70.70;37.95;;;;;;;14.80;100.00;100113.38;10436101;28;20063;-76
2023/10/12 23:29:16;;;;;;;66.75;34.28;;;;;;;14.74;100.00;100114.03;10433387;28;20053;-77
2023/10/12 23:34:25;;;;;;;74.40;37.90;;;;;;;14.99;100.00;100113.19;10430790;28;20044;-77